Time;durP1;ratioP1;P1;durP2;ratioP2;P2;SDS_P1;SDS_P2;PMS_P1;PMS_P2;Temp;Humidity;BMP_temperature;BMP_pressure;BME280_temperature;BME280_humidity;BME280_pressure;Samples;Min_cycle;Max_cycle;Signal;HPM_P1;HPM_P2
2023/11/01 00:00:19;;;;;;;7.65;3.17;;;;;;;;;;4114054;28;20051;-62
2023/11/01 00:02:20;;;;;;;10.02;2.88;;;;;;;;;;4114129;28;20062;-62
2023/11/01 00:04:22;;;;;;;4.53;2.58;;;;;;;;;;4114035;28;20483;-62
2023/11/01 00:06:24;;;;;;;7.75;2.72;;;;;;;;;;4113900;28;20058;-61
2023/11/01 00:08:26;;;;;;;4.90;3.38;;;;;;;;;;4116419;28;20521;-62
2023/11/01 00:10:28;;;;;;;5.72;2.80;;;;;;;;;;4133220;28;20080;-61
2023/11/01 00:12:29;;;;;;;3.92;1.95;;;;;;;;;;4132761;28;20465;-61
2023/11/01 00:14:31;;;;;;;9.73;2.87;;;;;;;;;;4132922;28;20050;-61
2023/11/01 00:16:33;;;;;;;6.60;2.35;;;;;;;;;;4133133;28;20042;-61
2023/11/01 00:18:35;;;;;;;5.88;1.95;;;;;;;;;;4136102;28;20479;-61
2023/11/01 00:20:37;;;;;;;3.03;2.00;;;;;;;;;;4133122;28;20425;-61
2023/11/01 00:22:41;;;;;;;3.63;2.78;;;;;;;;;;4132738;28;20053;-61
2023/11/01 00:24:42;;;;;;;5.35;2.00;;;;;;;;;;4132739;28;20145;-61
2023/11/01 00:26:45;;;;;;;5.47;2.88;;;;;;;;;;4132424;28;20080;-61
2023/11/01 00:28:46;;;;;;;4.20;2.65;;;;;;;;;;4132729;28;20038;-61
2023/11/01 00:30:48;;;;;;;6.07;1.77;;;;;;;;;;4132233;28;20042;-61
2023/11/01 00:32:50;;;;;;;12.65;2.10;;;;;;;;;;4115670;28;20094;-61
2023/11/01 00:34:52;;;;;;;4.63;2.83;;;;;;;;;;4132718;28;20101;-61
2023/11/01 00:36:53;;;;;;;6.20;1.80;;;;;;;;;;4132615;28;20038;-62
2023/11/01 00:38:55;;;;;;;9.88;2.00;;;;;;;;;;4132556;28;20348;-61
2023/11/01 00:40:57;;;;;;;2.90;1.65;;;;;;;;;;4115286;28;20043;-61
2023/11/01 00:42:59;;;;;;;8.10;2.38;;;;;;;;;;4132498;28;20048;-62
2023/11/01 00:45:01;;;;;;;7.38;2.85;;;;;;;;;;4132367;28;20042;-61
2023/11/01 00:47:05;;;;;;;8.05;2.13;;;;;;;;;;4132304;28;20066;-62
2023/11/01 00:49:06;;;;;;;3.22;2.50;;;;;;;;;;4119486;28;20471;-61
2023/11/01 00:51:08;;;;;;;6.53;2.20;;;;;;;;;;4116429;28;20126;-62
2023/11/01 00:53:10;;;;;;;3.45;2.33;;;;;;;;;;4116500;28;20377;-61
2023/11/01 00:55:12;;;;;;;5.03;2.42;;;;;;;;;;4127119;28;20434;-62
2023/11/01 00:57:13;;;;;;;6.70;2.90;;;;;;;;;;4132499;28;20035;-61
2023/11/01 00:59:15;;;;;;;2.50;1.98;;;;;;;;;;4132455;28;20125;-62
2023/11/01 01:01:16;;;;;;;7.83;4.00;;;;;;;;;;4132583;28;20675;-62
2023/11/01 01:03:18;;;;;;;2.97;2.73;;;;;;;;;;4132018;28;20046;-62
2023/11/01 01:05:22;;;;;;;6.45;2.25;;;;;;;;;;4114755;28;20388;-62
2023/11/01 01:07:24;;;;;;;5.47;2.33;;;;;;;;;;4132220;28;20046;-61
2023/11/01 01:09:25;;;;;;;5.15;2.55;;;;;;;;;;4131984;28;20506;-62
2023/11/01 01:11:27;;;;;;;4.65;1.75;;;;;;;;;;4132346;28;20372;-62
2023/11/01 01:13:29;;;;;;;4.60;1.92;;;;;;;;;;4132131;28;20053;-61
2023/11/01 01:15:31;;;;;;;3.67;2.30;;;;;;;;;;4135041;28;20084;-61
2023/11/01 01:17:32;;;;;;;3.73;2.53;;;;;;;;;;4132225;28;20050;-62
2023/11/01 01:19:34;;;;;;;2.20;1.98;;;;;;;;;;4114495;28;20293;-62
2023/11/01 01:21:36;;;;;;;4.53;2.20;;;;;;;;;;4131701;28;20132;-61
2023/11/01 01:23:38;;;;;;;6.30;1.98;;;;;;;;;;4131644;28;20348;-61
2023/11/01 01:25:41;;;;;;;5.68;2.88;;;;;;;;;;4131885;28;20053;-61
2023/11/01 01:27:43;;;;;;;4.43;1.98;;;;;;;;;;4131976;28;20049;-61
2023/11/01 01:29:45;;;;;;;8.38;2.75;;;;;;;;;;4131684;28;20093;-61
2023/11/01 01:31:47;;;;;;;10.00;2.80;;;;;;;;;;4131532;28;20046;-61
2023/11/01 01:33:49;;;;;;;5.67;2.90;;;;;;;;;;4132093;28;20093;-62
2023/11/01 01:35:50;;;;;;;2.45;2.08;;;;;;;;;;4132003;28;20180;-62
2023/11/01 01:37:52;;;;;;;3.50;2.85;;;;;;;;;;4131731;28;20402;-61
2023/11/01 01:39:54;;;;;;;4.23;3.57;;;;;;;;;;4131822;28;20046;-61
2023/11/01 01:41:55;;;;;;;3.95;3.42;;;;;;;;;;4131903;28;20573;-61
2023/11/01 01:43:57;;;;;;;5.72;2.25;;;;;;;;;;4132273;28;20073;-62
2023/11/01 01:46:07;;;;;;;5.45;2.47;;;;;;;;;;4131432;28;20052;-61
2023/11/01 01:48:09;;;;;;;10.65;3.47;;;;;;;;;;4115685;28;20043;-61
2023/11/01 01:50:12;;;;;;;4.60;2.65;;;;;;;;;;4120212;28;20113;-63
2023/11/01 01:52:15;;;;;;;6.28;3.38;;;;;;;;;;4131812;28;20122;-61
2023/11/01 01:54:16;;;;;;;;;;;;;;;;;;4114609;28;20050;-61
2023/11/01 01:56:18;;;;;;;4.97;2.97;;;;;;;;;;4131327;28;20025;-61
2023/11/01 01:58:21;;;;;;;5.57;2.90;;;;;;;;;;4130932;28;20048;-61
2023/11/01 02:00:24;;;;;;;3.42;2.88;;;;;;;;;;4131080;28;20570;-62
2023/11/01 02:02:26;;;;;;;4.05;2.75;;;;;;;;;;4131565;28;20052;-62
2023/11/01 02:04:28;;;;;;;5.70;2.88;;;;;;;;;;4131341;28;20038;-63
2023/11/01 02:06:30;;;;;;;7.10;2.47;;;;;;;;;;4130854;28;20058;-61
2023/11/01 02:08:32;;;;;;;4.43;2.90;;;;;;;;;;4131107;28;20046;-62
2023/11/01 02:10:35;;;;;;;6.90;4.55;;;;;;;;;;4133314;28;20042;-62
2023/11/01 02:12:36;;;;;;;5.85;2.20;;;;;;;;;;4131601;28;20034;-62
2023/11/01 02:14:38;;;;;;;6.97;2.30;;;;;;;;;;4131377;28;20039;-61
2023/11/01 02:16:40;;;;;;;5.78;2.92;;;;;;;;;;4131157;28;20434;-61
2023/11/01 02:18:42;;;;;;;3.72;2.70;;;;;;;;;;4131046;28;20471;-63
2023/11/01 02:20:45;;;;;;;9.67;2.90;;;;;;;;;;4131118;28;20046;-61
2023/11/01 02:22:46;;;;;;;2.75;2.55;;;;;;;;;;4131088;28;20120;-61
2023/11/01 02:24:52;;;;;;;5.15;3.97;;;;;;;;;;4131270;28;20092;-63
2023/11/01 02:26:53;;;;;;;2.38;2.22;;;;;;;;;;4130978;28;20049;-61
2023/11/01 02:28:55;;;;;;;8.37;2.37;;;;;;;;;;4130714;28;20056;-63
2023/11/01 02:30:57;;;;;;;3.15;2.95;;;;;;;;;;4130811;28;20297;-62
2023/11/01 02:32:59;;;;;;;6.32;2.33;;;;;;;;;;4112646;28;20066;-62
2023/11/01 02:35:01;;;;;;;6.00;3.00;;;;;;;;;;4130795;28;20038;-62
2023/11/01 02:37:03;;;;;;;4.60;3.25;;;;;;;;;;4131001;28;20125;-61
2023/11/01 02:39:06;;;;;;;3.25;2.80;;;;;;;;;;4130945;28;20121;-62
2023/11/01 02:41:08;;;;;;;4.43;2.55;;;;;;;;;;4121510;28;20097;-62
2023/11/01 02:43:10;;;;;;;7.95;2.38;;;;;;;;;;4115009;28;20043;-61
2023/11/01 02:45:12;;;;;;;6.15;2.00;;;;;;;;;;4125122;28;20046;-62
2023/11/01 02:47:13;;;;;;;7.28;2.13;;;;;;;;;;4129377;28;20104;-62
2023/11/01 02:49:15;;;;;;;3.30;3.10;;;;;;;;;;4130658;28;20053;-63
2023/11/01 02:51:17;;;;;;;8.15;3.55;;;;;;;;;;4130654;28;20035;-61
2023/11/01 02:53:19;;;;;;;5.40;2.13;;;;;;;;;;4130760;28;20038;-61
2023/11/01 02:55:20;;;;;;;20.00;3.27;;;;;;;;;;4130594;28;20061;-62
2023/11/01 02:57:22;;;;;;;22.58;3.47;;;;;;;;;;4130667;28;20313;-61
2023/11/01 02:59:24;;;;;;;2.47;2.37;;;;;;;;;;4130861;28;20489;-62
2023/11/01 03:01:26;;;;;;;7.47;3.33;;;;;;;;;;4130772;28;20493;-61
2023/11/01 03:03:28;;;;;;;18.95;4.10;;;;;;;;;;4130555;28;20065;-61
2023/11/01 03:05:32;;;;;;;15.88;2.72;;;;;;;;;;4130381;28;20141;-61
2023/11/01 03:07:34;;;;;;;10.80;4.20;;;;;;;;;;4133779;28;20050;-61
2023/11/01 03:09:36;;;;;;;10.43;4.27;;;;;;;;;;4130433;28;20073;-62
2023/11/01 03:11:41;;;;;;;6.28;3.30;;;;;;;;;;4130912;28;20332;-62
2023/11/01 03:13:42;;;;;;;45.03;3.05;;;;;;;;;;4130166;28;20031;-61
2023/11/01 03:15:44;;;;;;;28.07;3.30;;;;;;;;;;4130420;28;20053;-61
2023/11/01 03:17:47;;;;;;;24.70;3.72;;;;;;;;;;4130888;28;20097;-61
2023/11/01 03:19:49;;;;;;;7.22;3.75;;;;;;;;;;4130526;28;20039;-61
2023/11/01 03:21:51;;;;;;;5.70;2.95;;;;;;;;;;4113047;28;20047;-61
2023/11/01 03:23:55;;;;;;;7.85;2.90;;;;;;;;;;4130702;28;20443;-61
2023/11/01 03:25:57;;;;;;;8.07;3.73;;;;;;;;;;4130358;28;20459;-61
2023/11/01 03:27:58;;;;;;;38.58;3.70;;;;;;;;;;4130582;28;20286;-61
2023/11/01 03:30:00;;;;;;;65.97;4.77;;;;;;;;;;4130545;28;20088;-61
2023/11/01 03:32:03;;;;;;;35.40;4.68;;;;;;;;;;4130703;28;20125;-61
2023/11/01 03:34:04;;;;;;;7.53;3.13;;;;;;;;;;4130537;28;20047;-62
2023/11/01 03:36:06;;;;;;;15.87;3.40;;;;;;;;;;4130244;28;20395;-61
2023/11/01 03:38:08;;;;;;;18.83;4.32;;;;;;;;;;4115392;28;20118;-61
2023/11/01 03:40:10;;;;;;;12.95;2.72;;;;;;;;;;4114427;28;20043;-61
2023/11/01 03:42:12;;;;;;;48.70;4.15;;;;;;;;;;4125209;28;20042;-62
2023/11/01 03:44:13;;;;;;;11.73;4.60;;;;;;;;;;4132388;28;20073;-61
2023/11/01 03:46:15;;;;;;;86.83;5.40;;;;;;;;;;4133593;28;20042;-63
2023/11/01 03:48:22;;;;;;;90.00;6.07;;;;;;;;;;4133412;28;20502;-61
2023/11/01 03:50:24;;;;;;;17.63;3.35;;;;;;;;;;4133403;28;20073;-62
2023/11/01 03:52:26;;;;;;;3.28;3.08;;;;;;;;;;4133256;28;20038;-61
2023/11/01 03:54:28;;;;;;;36.77;4.43;;;;;;;;;;4133288;28;20045;-62
2023/11/01 03:56:30;;;;;;;16.55;2.83;;;;;;;;;;4133864;28;20368;-61
2023/11/01 03:58:31;;;;;;;57.70;4.63;;;;;;;;;;4115835;28;20051;-62
2023/11/01 04:00:33;;;;;;;19.80;3.80;;;;;;;;;;4133228;28;20038;-61
2023/11/01 04:02:35;;;;;;;40.17;4.67;;;;;;;;;;4133290;28;20374;-61
2023/11/01 04:04:37;;;;;;;13.20;3.13;;;;;;;;;;4136123;28;20042;-61
2023/11/01 04:06:38;;;;;;;5.75;2.75;;;;;;;;;;4116044;28;20510;-61
2023/11/01 04:08:40;;;;;;;21.55;2.63;;;;;;;;;;4133117;28;20506;-61
2023/11/01 04:10:42;;;;;;;65.13;4.00;;;;;;;;;;4132782;28;20514;-61
2023/11/01 04:12:44;;;;;;;24.37;2.73;;;;;;;;;;4133003;28;20045;-61
2023/11/01 04:14:54;;;;;;;2.10;2.10;;;;;;;;;;4133085;28;20992;-61
2023/11/01 04:16:56;;;;;;;54.05;3.30;;;;;;;;;;4133199;28;20046;-61
2023/11/01 04:19:02;;;;;;;53.70;3.42;;;;;;;;;;4132757;28;20039;-61
2023/11/01 04:21:04;;;;;;;48.88;3.72;;;;;;;;;;4133014;28;20308;-61
2023/11/01 04:23:08;;;;;;;17.75;2.20;;;;;;;;;;4132960;28;20161;-61
2023/11/01 04:25:10;;;;;;;7.85;3.30;;;;;;;;;;4133000;28;20536;-61
2023/11/01 04:27:12;;;;;;;;;;;;;;;;;;4133240;28;20556;-61
2023/11/01 04:29:13;;;;;;;66.80;4.75;;;;;;;;;;4132712;28;19922;-61
2023/11/01 04:31:17;;;;;;;63.28;4.55;;;;;;;;;;4132538;28;20056;-62
2023/11/01 04:33:18;;;;;;;63.03;5.13;;;;;;;;;;4125954;28;20063;-62
2023/11/01 04:35:20;;;;;;;62.33;4.80;;;;;;;;;;4116571;28;20047;-62
2023/11/01 04:37:25;;;;;;;16.77;3.00;;;;;;;;;;4116765;28;20290;-61
2023/11/01 04:39:26;;;;;;;98.35;5.97;;;;;;;;;;4116426;28;20043;-61
2023/11/01 04:41:28;;;;;;;49.72;4.30;;;;;;;;;;4116432;28;20047;-61
2023/11/01 04:43:30;;;;;;;24.02;4.05;;;;;;;;;;4116456;28;20049;-61
2023/11/01 04:45:32;;;;;;;21.63;4.22;;;;;;;;;;4129919;28;20054;-61
2023/11/01 04:47:36;;;;;;;27.83;4.15;;;;;;;;;;4132411;28;20038;-61
2023/11/01 04:49:39;;;;;;;4.05;3.78;;;;;;;;;;4132767;28;20070;-61
2023/11/01 04:51:41;;;;;;;3.85;3.72;;;;;;;;;;4132442;28;20130;-62
2023/11/01 04:53:42;;;;;;;4.63;4.32;;;;;;;;;;4132577;28;20134;-61
2023/11/01 04:55:44;;;;;;;3.97;3.67;;;;;;;;;;4131612;28;20039;-61
2023/11/01 04:57:50;;;;;;;10.88;4.25;;;;;;;;;;4132410;28;20038;-62
2023/11/01 04:59:52;;;;;;;17.90;3.53;;;;;;;;;;4133576;28;20030;-61
2023/11/01 05:01:54;;;;;;;47.30;6.85;;;;;;;;;;4132486;28;20057;-61
2023/11/01 05:03:55;;;;;;;40.53;4.35;;;;;;;;;;4132303;28;20044;-61
2023/11/01 05:05:57;;;;;;;5.57;4.65;;;;;;;;;;4132131;28;20055;-61
2023/11/01 05:07:59;;;;;;;7.57;3.35;;;;;;;;;;4132162;28;20089;-63
2023/11/01 05:10:02;;;;;;;16.10;3.23;;;;;;;;;;4132099;28;20138;-62
2023/11/01 05:12:04;;;;;;;3.40;3.15;;;;;;;;;;4132347;28;20301;-61
2023/11/01 05:14:06;;;;;;;8.73;3.80;;;;;;;;;;4132372;28;20050;-61
2023/11/01 05:16:07;;;;;;;4.25;3.90;;;;;;;;;;4131990;28;20434;-61
2023/11/01 05:18:09;;;;;;;4.10;3.90;;;;;;;;;;4132332;28;20038;-61
2023/11/01 05:20:12;;;;;;;13.65;4.90;;;;;;;;;;4132290;28;20038;-61
2023/11/01 05:22:13;;;;;;;53.45;6.55;;;;;;;;;;4114643;28;20047;-61
2023/11/01 05:24:15;;;;;;;69.53;6.53;;;;;;;;;;4132184;28;20423;-62
2023/11/01 05:26:17;;;;;;;32.35;4.60;;;;;;;;;;4131928;28;20529;-61
2023/11/01 05:28:22;;;;;;;7.90;3.63;;;;;;;;;;4131573;28;20042;-61
2023/11/01 05:30:24;;;;;;;16.40;3.55;;;;;;;;;;4118546;28;20130;-62
2023/11/01 05:32:26;;;;;;;24.35;4.18;;;;;;;;;;4115898;28;20545;-61
2023/11/01 05:34:28;;;;;;;34.03;4.95;;;;;;;;;;4115625;28;20043;-61
2023/11/01 05:36:29;;;;;;;23.37;4.33;;;;;;;;;;4115743;28;20045;-62
2023/11/01 05:38:31;;;;;;;33.23;5.57;;;;;;;;;;4115753;28;20109;-61
2023/11/01 05:40:33;;;;;;;6.10;3.70;;;;;;;;;;4115599;28;20126;-62
2023/11/01 05:42:35;;;;;;;11.82;3.83;;;;;;;;;;4127367;28;20043;-63
2023/11/01 05:44:36;;;;;;;4.50;4.30;;;;;;;;;;4131812;28;20101;-63
2023/11/01 05:46:38;;;;;;;4.00;3.90;;;;;;;;;;4131432;28;20291;-62
2023/11/01 05:48:40;;;;;;;9.07;3.42;;;;;;;;;;4131702;28;20400;-62
2023/11/01 05:50:45;;;;;;;5.50;5.00;;;;;;;;;;4131568;28;20089;-62
2023/11/01 05:52:47;;;;;;;5.53;3.45;;;;;;;;;;4131599;28;20128;-68
2023/11/01 05:54:48;;;;;;;6.65;3.70;;;;;;;;;;4131434;28;20515;-68
2023/11/01 05:56:50;;;;;;;4.43;4.30;;;;;;;;;;4133070;28;20687;-68
2023/11/01 05:58:52;;;;;;;6.25;3.65;;;;;;;;;;4131561;28;20441;-68
2023/11/01 06:00:54;;;;;;;;;;;;;;;;;;4131851;28;20042;-68
2023/11/01 06:02:56;;;;;;;5.47;3.55;;;;;;;;;;4131299;28;19926;-68
2023/11/01 06:04:58;;;;;;;3.30;3.08;;;;;;;;;;4113953;28;20125;-68
2023/11/01 06:07:02;;;;;;;11.10;3.50;;;;;;;;;;4130938;28;20053;-68
2023/11/01 06:09:04;;;;;;;10.13;3.90;;;;;;;;;;4120723;28;20380;-68
2023/11/01 06:11:07;;;;;;;37.30;3.58;;;;;;;;;;4129889;28;20030;-69
2023/11/01 06:13:09;;;;;;;8.80;3.42;;;;;;;;;;4131001;28;20065;-68
2023/11/01 06:15:11;;;;;;;55.78;6.90;;;;;;;;;;4131153;28;20445;-68
2023/11/01 06:17:13;;;;;;;;;;;;;;;;;;4114201;28;20043;-67
2023/11/01 06:19:15;;;;;;;7.22;4.50;;;;;;;;;;4131252;28;19972;-68
2023/11/01 06:21:17;;;;;;;41.40;6.30;;;;;;;;;;4131271;28;20046;-68
2023/11/01 06:23:18;;;;;;;60.17;5.60;;;;;;;;;;4130834;28;20574;-69
2023/11/01 06:25:22;;;;;;;24.10;4.25;;;;;;;;;;4113452;28;20720;-68
2023/11/01 06:27:23;;;;;;;8.30;3.65;;;;;;;;;;4115174;28;20518;-68
2023/11/01 06:29:25;;;;;;;27.25;5.13;;;;;;;;;;4114777;28;20073;-68
2023/11/01 06:31:27;;;;;;;62.33;6.18;;;;;;;;;;4115056;28;20052;-68
2023/11/01 06:33:31;;;;;;;4.82;4.22;;;;;;;;;;4115123;28;20034;-68
2023/11/01 06:35:33;;;;;;;31.27;4.07;;;;;;;;;;4125559;28;20050;-68
2023/11/01 06:37:35;;;;;;;19.23;4.75;;;;;;;;;;4118064;28;20042;-68
2023/11/01 06:39:36;;;;;;;35.78;4.82;;;;;;;;;;4114493;28;20038;-68
2023/11/01 06:41:38;;;;;;;21.20;5.65;;;;;;;;;;4129963;28;20570;-68
2023/11/01 06:43:44;;;;;;;11.23;4.93;;;;;;;;;;4128925;28;20050;-69
2023/11/01 06:45:46;;;;;;;21.05;3.97;;;;;;;;;;4110180;28;20055;-66
2023/11/01 06:47:47;;;;;;;19.27;3.75;;;;;;;;;;4130876;28;20057;-67
2023/11/01 06:49:49;;;;;;;13.27;3.58;;;;;;;;;;4125829;28;20077;-68
2023/11/01 06:51:51;;;;;;;8.80;5.25;;;;;;;;;;4123367;28;20034;-68
2023/11/01 06:53:53;;;;;;;15.60;4.40;;;;;;;;;;4129231;28;20046;-68
2023/11/01 06:55:54;;;;;;;6.13;3.50;;;;;;;;;;4130332;28;20034;-69
2023/11/01 06:57:56;;;;;;;8.67;3.93;;;;;;;;;;4130404;28;20049;-69
2023/11/01 06:59:58;;;;;;;29.17;4.03;;;;;;;;;;4122431;28;20290;-61
2023/11/01 07:02:00;;;;;;;12.68;3.90;;;;;;;;;;4121327;28;20096;-61
2023/11/01 07:04:01;;;;;;;8.77;4.73;;;;;;;;;;4127884;28;20049;-61
2023/11/01 07:06:03;;;;;;;4.70;4.40;;;;;;;;;;4119967;28;20142;-61
2023/11/01 07:08:05;;;;;;;5.70;4.93;;;;;;;;;;4119776;28;20411;-62
2023/11/01 07:10:08;;;;;;;14.90;4.72;;;;;;;;;;4130598;28;20046;-61
2023/11/01 07:12:09;;;;;;;;;;;;;;;;;;4123158;28;20066;-61
2023/11/01 07:14:11;;;;;;;17.80;4.07;;;;;;;;;;4127288;28;19941;-62
2023/11/01 07:16:15;;;;;;;5.30;4.53;;;;;;;;;;4124935;28;20100;-63
2023/11/01 07:18:17;;;;;;;5.25;4.90;;;;;;;;;;4121707;28;20073;-62
2023/11/01 07:20:19;;;;;;;7.03;6.35;;;;;;;;;;4132778;28;20034;-63
2023/11/01 07:22:21;;;;;;;5.75;4.60;;;;;;;;;;4124807;28;20447;-61
2023/11/01 07:24:23;;;;;;;;;;;;;;;;;;4127094;28;20046;-61
2023/11/01 07:26:25;;;;;;;5.38;4.93;;;;;;;;;;4131222;28;20309;-62
2023/11/01 07:28:30;;;;;;;10.63;6.43;;;;;;;;;;4133723;28;20494;-61
2023/11/01 07:30:32;;;;;;;6.85;6.10;;;;;;;;;;4133508;28;20046;-62
2023/11/01 07:32:34;;;;;;;15.73;6.97;;;;;;;;;;4133807;28;20731;-63
2023/11/01 07:34:36;;;;;;;9.02;6.97;;;;;;;;;;4115993;28;20093;-63
2023/11/01 07:36:38;;;;;;;7.00;6.43;;;;;;;;;;4133670;28;20042;-62
2023/11/01 07:38:40;;;;;;;7.30;5.43;;;;;;;;;;4133501;28;20129;-63
2023/11/01 07:40:44;;;;;;;10.45;6.00;;;;;;;;;;4133434;28;20372;-61
2023/11/01 07:42:46;;;;;;;13.93;6.35;;;;;;;;;;4133713;28;20049;-61
2023/11/01 07:44:48;;;;;;;8.07;5.55;;;;;;;;;;4133393;28;20093;-62
2023/11/01 07:46:49;;;;;;;6.70;5.65;;;;;;;;;;4127772;28;20035;-62
2023/11/01 07:48:53;;;;;;;14.45;5.60;;;;;;;;;;4131028;28;20050;-61
2023/11/01 07:50:55;;;;;;;7.80;5.37;;;;;;;;;;4131630;28;20458;-61
2023/11/01 07:52:57;;;;;;;7.90;5.47;;;;;;;;;;4126835;28;20364;-64
2023/11/01 07:54:59;;;;;;;7.50;5.35;;;;;;;;;;4127351;28;20093;-62
2023/11/01 07:57:00;;;;;;;9.57;4.95;;;;;;;;;;4133256;28;20108;-63
2023/11/01 07:59:02;;;;;;;6.13;5.57;;;;;;;;;;4133359;28;20042;-61
2023/11/01 08:01:04;;;;;;;8.75;6.57;;;;;;;;;;4133648;28;20042;-61
2023/11/01 08:03:06;;;;;;;8.32;4.20;;;;;;;;;;4129522;28;20122;-61
2023/11/01 08:05:09;;;;;;;5.80;4.07;;;;;;;;;;4128228;28;20062;-62
2023/11/01 08:07:11;;;;;;;8.45;4.30;;;;;;;;;;4127588;28;20499;-61
2023/11/01 08:09:15;;;;;;;17.83;5.40;;;;;;;;;;4124550;28;20069;-62
2023/11/01 08:11:17;;;;;;;8.60;5.75;;;;;;;;;;4131547;28;20117;-61
2023/11/01 08:13:18;;;;;;;8.63;5.97;;;;;;;;;;4131400;28;20453;-62
2023/11/01 08:15:20;;;;;;;8.48;5.18;;;;;;;;;;4131658;28;20041;-62
2023/11/01 08:17:22;;;;;;;8.65;4.03;;;;;;;;;;4129941;28;20058;-61
2023/11/01 08:19:27;;;;;;;11.80;6.53;;;;;;;;;;4116104;28;20039;-62
2023/11/01 08:21:32;;;;;;;13.48;6.10;;;;;;;;;;4116168;28;20039;-61
2023/11/01 08:23:35;;;;;;;11.02;5.75;;;;;;;;;;4116159;28;20396;-62
2023/11/01 08:25:37;;;;;;;6.35;5.18;;;;;;;;;;4116528;28;20126;-65
2023/11/01 08:27:39;;;;;;;15.27;7.05;;;;;;;;;;4116775;28;20078;-65
2023/11/01 08:29:43;;;;;;;6.53;5.93;;;;;;;;;;4116383;28;20046;-65
2023/11/01 08:31:45;;;;;;;5.93;4.53;;;;;;;;;;4116729;28;20046;-65
2023/11/01 08:33:46;;;;;;;13.35;6.07;;;;;;;;;;4116396;28;20047;-65
2023/11/01 08:35:48;;;;;;;7.97;5.15;;;;;;;;;;4116271;28;20133;-66
2023/11/01 08:37:50;;;;;;;9.13;5.63;;;;;;;;;;4116489;28;20434;-66
2023/11/01 08:39:52;;;;;;;13.73;6.32;;;;;;;;;;4116290;28;20042;-65
2023/11/01 08:41:54;;;;;;;10.77;4.85;;;;;;;;;;4116412;28;20051;-65
2023/11/01 08:43:55;;;;;;;15.67;6.90;;;;;;;;;;4116831;28;20042;-66
2023/11/01 08:45:57;;;;;;;8.73;4.60;;;;;;;;;;4135340;28;20294;-65
2023/11/01 08:47:58;;;;;;;11.27;5.37;;;;;;;;;;4132114;28;20046;-66
2023/11/01 08:50:01;;;;;;;10.88;5.28;;;;;;;;;;4114876;28;20301;-66
2023/11/01 08:52:02;;;;;;;11.68;5.07;;;;;;;;;;4132489;28;20394;-65
2023/11/01 08:54:04;;;;;;;8.40;4.22;;;;;;;;;;4132567;28;20045;-66
2023/11/01 08:56:07;;;;;;;10.82;6.00;;;;;;;;;;4132181;28;20125;-65
2023/11/01 08:58:11;;;;;;;12.23;6.20;;;;;;;;;;4130443;28;20081;-66
2023/11/01 09:00:13;;;;;;;7.90;5.60;;;;;;;;;;4109846;28;20050;-66
2023/11/01 09:02:16;;;;;;;8.32;5.10;;;;;;;;;;4132360;28;20289;-66
2023/11/01 09:04:18;;;;;;;14.57;4.47;;;;;;;;;;4132080;28;20109;-66
2023/11/01 09:06:20;;;;;;;5.82;4.20;;;;;;;;;;4130429;28;20423;-66
2023/11/01 09:08:21;;;;;;;4.57;4.20;;;;;;;;;;4131389;28;20042;-67
2023/11/01 09:10:23;;;;;;;11.68;4.70;;;;;;;;;;4130887;28;20073;-68
2023/11/01 09:12:25;;;;;;;7.73;4.57;;;;;;;;;;4123424;28;20038;-61
2023/11/01 09:14:27;;;;;;;14.55;4.05;;;;;;;;;;4121468;28;20766;-62
2023/11/01 09:16:28;;;;;;;7.15;4.40;;;;;;;;;;4114868;28;20041;-63
2023/11/01 09:18:30;;;;;;;8.93;4.50;;;;;;;;;;4116035;28;20043;-62
2023/11/01 09:20:32;;;;;;;10.40;4.43;;;;;;;;;;4115661;28;20046;-62
2023/11/01 09:22:34;;;;;;;8.80;4.28;;;;;;;;;;4116811;28;20043;-62
2023/11/01 09:24:35;;;;;;;7.37;3.53;;;;;;;;;;4126611;28;20073;-61
2023/11/01 09:26:37;;;;;;;12.30;4.00;;;;;;;;;;4124366;28;20108;-62
2023/11/01 09:28:39;;;;;;;7.05;3.90;;;;;;;;;;4129684;28;20069;-62
2023/11/01 09:30:41;;;;;;;7.20;3.63;;;;;;;;;;4112736;28;20602;-62
2023/11/01 09:32:42;;;;;;;5.25;3.28;;;;;;;;;;4128270;28;20038;-63
2023/11/01 09:34:44;;;;;;;8.95;4.80;;;;;;;;;;4125491;28;20046;-63
2023/11/01 09:36:46;;;;;;;8.10;4.50;;;;;;;;;;4131530;28;20041;-62
2023/11/01 09:38:48;;;;;;;9.60;4.33;;;;;;;;;;4121086;28;20586;-61
2023/11/01 09:40:50;;;;;;;8.07;3.60;;;;;;;;;;4133550;28;20449;-62
2023/11/01 09:42:53;;;;;;;11.48;3.97;;;;;;;;;;4129451;28;20050;-62
2023/11/01 09:44:55;;;;;;;;;;;;;;;;;;4127662;28;20046;-61
2023/11/01 09:46:58;;;;;;;9.07;4.68;;;;;;;;;;4123461;28;19922;-62
2023/11/01 09:49:00;;;;;;;10.55;4.20;;;;;;;;;;4121068;28;20046;-62
2023/11/01 09:51:03;;;;;;;10.57;5.43;;;;;;;;;;4130979;28;20045;-61
2023/11/01 09:53:05;;;;;;;6.53;3.78;;;;;;;;;;4130597;28;20093;-61
2023/11/01 09:55:07;;;;;;;6.87;3.70;;;;;;;;;;4131061;28;20089;-62
2023/11/01 09:57:11;;;;;;;7.95;4.28;;;;;;;;;;4131314;28;20096;-63
2023/11/01 09:59:12;;;;;;;6.75;3.05;;;;;;;;;;4113003;28;20499;-61
2023/11/01 10:01:16;;;;;;;10.82;4.22;;;;;;;;;;4131111;28;20616;-61
2023/11/01 10:03:19;;;;;;;9.88;3.88;;;;;;;;;;4130773;28;20410;-61
2023/11/01 10:05:21;;;;;;;9.85;4.03;;;;;;;;;;4129273;28;20066;-62
2023/11/01 10:07:23;;;;;;;7.47;3.83;;;;;;;;;;4125310;28;20042;-61
2023/11/01 10:09:26;;;;;;;4.18;3.72;;;;;;;;;;4127468;28;20325;-63
2023/11/01 10:11:31;;;;;;;8.98;4.28;;;;;;;;;;4128796;28;20057;-62
2023/11/01 10:13:33;;;;;;;8.57;3.00;;;;;;;;;;4125520;28;20043;-62
2023/11/01 10:15:35;;;;;;;5.57;3.55;;;;;;;;;;4129182;28;20049;-61
2023/11/01 10:17:37;;;;;;;6.50;3.72;;;;;;;;;;4130811;28;20042;-61
2023/11/01 10:19:41;;;;;;;5.10;3.67;;;;;;;;;;4129100;28;20042;-61
2023/11/01 10:21:43;;;;;;;8.15;4.07;;;;;;;;;;4127269;28;20038;-62
2023/11/01 10:23:44;;;;;;;5.20;3.45;;;;;;;;;;4125498;28;20137;-62
2023/11/01 10:25:46;;;;;;;6.85;2.72;;;;;;;;;;4129792;28;20046;-61
2023/11/01 10:27:49;;;;;;;6.70;4.05;;;;;;;;;;4128103;28;20077;-62
2023/11/01 10:29:52;;;;;;;2.95;2.65;;;;;;;;;;4114637;28;20392;-62
2023/11/01 10:31:55;;;;;;;4.40;3.53;;;;;;;;;;4116078;28;20053;-61
2023/11/01 10:33:57;;;;;;;4.72;3.50;;;;;;;;;;4130072;28;20120;-62
2023/11/01 10:35:59;;;;;;;;;;;;;;;;;;4129632;28;20406;-61
2023/11/01 10:38:02;;;;;;;5.30;2.63;;;;;;;;;;4121594;28;19926;-63
2023/11/01 10:40:07;;;;;;;6.18;3.25;;;;;;;;;;4121032;28;20045;-63
2023/11/01 10:42:11;;;;;;;4.82;2.80;;;;;;;;;;4125147;28;20039;-61
2023/11/01 10:44:13;;;;;;;3.72;3.47;;;;;;;;;;4126338;28;20046;-62
2023/11/01 10:46:16;;;;;;;4.90;1.88;;;;;;;;;;4127970;28;20034;-61
2023/11/01 10:48:19;;;;;;;3.95;3.03;;;;;;;;;;4127373;28;20038;-62
2023/11/01 10:50:22;;;;;;;5.65;2.75;;;;;;;;;;4129830;28;20486;-61
2023/11/01 10:52:25;;;;;;;7.00;2.88;;;;;;;;;;4130498;28;20043;-61
2023/11/01 10:54:27;;;;;;;2.92;2.00;;;;;;;;;;4114709;28;20038;-63
2023/11/01 10:56:29;;;;;;;7.28;3.03;;;;;;;;;;4121582;28;20050;-61
2023/11/01 10:58:33;;;;;;;4.30;3.33;;;;;;;;;;4123907;28;20117;-63
2023/11/01 11:00:43;;;;;;;4.43;1.80;;;;;;;;;;4119271;28;20289;-61
2023/11/01 11:03:18;;;;;;;2.30;1.67;;;;;;;;;;4125946;28;20046;-61
2023/11/01 11:05:28;;;;;;;4.25;3.20;;;;;;;;;;4086599;28;20058;-61
2023/11/01 11:07:48;;;;;;;7.45;2.10;;;;;;;;;;4127900;28;20084;-61
2023/11/01 11:10:10;;;;;;;8.57;2.60;;;;;;;;;;4130286;28;20069;-61
2023/11/01 11:12:15;;;;;;;7.72;2.10;;;;;;;;;;4129756;28;20038;-62
2023/11/01 11:14:50;;;;;;;4.15;2.83;;;;;;;;;;4130248;28;20118;-62
2023/11/01 11:17:08;;;;;;;7.93;2.30;;;;;;;;;;4079090;29;20428;-61
2023/11/01 11:19:09;;;;;;;2.38;2.22;;;;;;;;;;4079815;29;20124;-62
2023/11/01 11:21:30;;;;;;;4.43;2.03;;;;;;;;;;4077389;29;20048;-61
2023/11/01 11:23:32;;;;;;;6.13;2.88;;;;;;;;;;4077410;29;20051;-60
2023/11/01 11:25:37;;;;;;;7.03;1.90;;;;;;;;;;4079503;29;20125;-61
2023/11/01 11:27:44;;;;;;;4.00;1.85;;;;;;;;;;4078640;29;20067;-63
2023/11/01 11:29:46;;;;;;;7.18;2.38;;;;;;;;;;4063425;29;20127;-62
2023/11/01 11:31:57;;;;;;;3.85;1.98;;;;;;;;;;4079086;29;20044;-60
2023/11/01 11:33:59;;;;;;;5.30;1.85;;;;;;;;;;4079541;29;20560;-62
2023/11/01 11:36:10;;;;;;;4.38;2.05;;;;;;;;;;4079947;29;20047;-61
2023/11/01 11:38:27;;;;;;;1.65;1.52;;;;;;;;;;4079709;29;20046;-63
2023/11/01 11:40:29;;;;;;;5.90;1.98;;;;;;;;;;4079312;29;20075;-62
2023/11/01 11:42:39;;;;;;;6.32;2.35;;;;;;;;;;4079544;29;20060;-62
2023/11/01 11:44:59;;;;;;;8.32;2.08;;;;;;;;;;4079367;29;20547;-62
2023/11/01 11:47:21;;;;;;;2.00;1.27;;;;;;;;;;4082634;29;20460;-62
2023/11/01 11:49:24;;;;;;;3.20;1.55;;;;;;;;;;4077153;29;20083;-61
2023/11/01 11:51:27;;;;;;;4.60;1.65;;;;;;;;;;4080512;29;20048;-61
2023/11/01 11:53:34;;;;;;;3.53;2.53;;;;;;;;;;4120962;28;20050;-61
2023/11/01 11:55:39;;;;;;;4.97;2.20;;;;;;;;;;4124113;28;20047;-62
2023/11/01 11:57:41;;;;;;;6.78;2.90;;;;;;;;;;4121293;28;20042;-63
2023/11/01 11:59:43;;;;;;;8.07;2.38;;;;;;;;;;4124559;28;20042;-63
2023/11/01 12:01:45;;;;;;;4.80;2.38;;;;;;;;;;4126924;28;20050;-61
2023/11/01 12:03:47;;;;;;;5.32;2.00;;;;;;;;;;4117768;28;20446;-62
2023/11/01 12:05:54;;;;;;;7.90;2.20;;;;;;;;;;4129324;28;20047;-61
2023/11/01 12:07:57;;;;;;;5.78;1.65;;;;;;;;;;4131515;28;20190;-61
2023/11/01 12:10:00;;;;;;;2.03;1.75;;;;;;;;;;4132713;28;20050;-62
2023/11/01 12:12:09;;;;;;;4.88;1.35;;;;;;;;;;4126259;28;20104;-61
2023/11/01 12:14:16;;;;;;;6.78;2.45;;;;;;;;;;4131150;28;21773;-61